createdAt,value
2019-05-29T00:02:26.212Z,10.00
2019-05-29T00:04:52.619Z,10.00
2019-05-29T00:10:38.145Z,9.90
2019-05-29T00:27:37.380Z,9.80
2019-05-29T00:30:13.472Z,9.80
2019-05-29T00:32:45.144Z,9.80
2019-05-29T00:38:10.551Z,9.80
2019-05-29T00:40:53.599Z,9.80
2019-05-29T00:43:25.564Z,9.80
2019-05-29T00:46:13.800Z,9.70
2019-05-29T00:48:44.747Z,9.70
2019-05-29T00:51:12.965Z,9.70
2019-05-29T00:53:44.285Z,9.70
2019-05-29T00:56:34.189Z,9.70
2019-05-29T00:59:00.525Z,9.70
2019-05-29T01:01:51.388Z,9.60
2019-05-29T01:04:44.248Z,9.60
2019-05-29T01:07:03.914Z,9.60
2019-05-29T01:31:21.643Z,9.40
2019-05-29T01:34:28.292Z,9.30
2019-05-29T01:37:52.251Z,9.30
2019-05-29T01:48:37.681Z,9.20
2019-05-29T01:51:17.444Z,9.20
2019-05-29T01:53:50.703Z,9.10
2019-05-29T01:56:19.814Z,9.10
2019-05-29T01:58:45.657Z,9.10
2019-05-29T02:01:19.881Z,9.00
2019-05-29T02:03:53.461Z,9.00
2019-05-29T02:06:28.808Z,9.00
2019-05-29T02:09:01.957Z,9.00
2019-05-29T02:11:53.121Z,8.90
2019-05-29T02:14:23.141Z,8.90
2019-05-29T02:16:52.528Z,8.90
2019-05-29T02:19:29.031Z,8.90
2019-05-29T02:22:06.021Z,8.80
2019-05-29T02:27:30.116Z,8.80
2019-05-29T02:32:39.649Z,8.70
2019-05-29T02:35:37.066Z,8.70
2019-05-29T02:38:05.270Z,8.70
2019-05-29T02:40:53.397Z,8.70
2019-05-29T02:43:45.031Z,8.60
2019-05-29T02:48:54.166Z,8.60
2019-05-29T02:51:24.040Z,8.60
2019-05-29T02:53:59.279Z,8.60
2019-05-29T02:56:35.600Z,8.60
2019-05-29T02:59:11.337Z,8.60
2019-05-29T03:01:41.722Z,8.60
2019-05-29T03:04:21.726Z,8.50
2019-05-29T03:06:59.473Z,8.50
2019-05-29T03:10:35.834Z,8.50
2019-05-29T03:12:11.568Z,8.50
2019-05-29T03:14:42.631Z,8.50
2019-05-29T03:17:20.883Z,8.40
2019-05-29T03:21:48.548Z,8.40
2019-05-29T03:22:36.150Z,8.40
2019-05-29T03:25:05.916Z,8.40
2019-05-29T03:27:34.077Z,8.30
2019-05-29T03:30:02.410Z,8.30
2019-05-29T03:32:48.633Z,8.30
2019-05-29T03:35:20.021Z,8.30
2019-05-29T03:37:59.233Z,8.30
2019-05-29T03:40:38.749Z,8.30
2019-05-29T03:54:28.817Z,8.30
2019-05-29T03:57:14.080Z,8.30
2019-05-29T03:59:57.280Z,8.30
2019-05-29T04:02:28.531Z,8.30
2019-05-29T04:05:18.707Z,8.30
2019-05-29T04:09:00.484Z,8.30
2019-05-29T04:35:39.755Z,8.30
2019-05-29T04:38:19.076Z,8.30
2019-05-29T04:40:49.286Z,8.40
2019-05-29T04:43:20.648Z,8.40
2019-05-29T04:45:58.415Z,8.40
2019-05-29T04:48:26.017Z,8.40
2019-05-29T04:51:04.461Z,8.40
2019-05-29T04:53:37.715Z,8.50
2019-05-29T04:56:20.438Z,8.50
2019-05-29T04:58:49.391Z,8.60
2019-05-29T05:01:37.114Z,8.70
2019-05-29T05:10:45.798Z,8.90
2019-05-29T05:47:43.574Z,9.30
2019-05-29T05:50:11.052Z,9.40
2019-05-29T05:52:58.404Z,9.40
2019-05-29T05:55:12.680Z,9.50
2019-05-29T05:57:43.264Z,9.50
2019-05-29T06:00:18.283Z,9.60
2019-05-29T06:02:52.111Z,9.60
2019-05-29T06:05:40.634Z,9.60
2019-05-29T06:08:11.629Z,9.70
2019-05-29T06:24:41.138Z,9.90
2019-05-29T06:27:20.432Z,10.00
2019-05-29T07:40:08.068Z,11.10
2019-05-29T07:43:03.536Z,11.30
2019-05-29T07:45:33.908Z,11.50
2019-05-29T07:48:12.713Z,11.70
2019-05-29T07:50:48.406Z,11.80
2019-05-29T07:53:19.182Z,11.80
2019-05-29T08:00:03.282Z,12.00
2019-05-29T08:02:35.818Z,12.10
2019-05-29T08:05:25.825Z,12.10
2019-05-29T08:07:55.297Z,12.20
2019-05-29T08:12:09.557Z,12.20
2019-05-29T08:13:03.431Z,12.20
2019-05-29T08:16:01.826Z,12.30
2019-05-29T08:18:31.823Z,12.40
2019-05-29T08:21:07.672Z,12.50
2019-05-29T08:23:52.663Z,12.60
2019-05-29T08:26:20.809Z,12.70
2019-05-29T08:29:06.647Z,12.80
2019-05-29T08:31:40.681Z,13.00
2019-05-29T08:34:22.140Z,13.20
2019-05-29T08:37:07.437Z,13.40
2019-05-29T08:42:30.563Z,13.70
2019-05-29T08:48:02.397Z,13.80
2019-05-29T08:50:41.509Z,13.90
2019-05-29T08:53:21.832Z,14.00
2019-05-29T08:56:04.758Z,14.10
2019-05-29T08:58:30.189Z,14.30
2019-05-29T09:03:46.637Z,14.50
2019-05-29T09:06:29.065Z,14.70
2019-05-29T09:09:10.187Z,14.80
2019-05-29T09:11:29.480Z,14.90
2019-05-29T09:14:08.817Z,14.80
2019-05-29T09:16:37.130Z,14.90
2019-05-29T09:19:12.125Z,15.00
2019-05-29T09:25:03.127Z,15.00
2019-05-29T09:27:09.190Z,14.90
2019-05-29T09:29:42.585Z,14.90
2019-05-29T09:32:15.353Z,14.90
2019-05-29T09:34:48.441Z,15.00
2019-05-29T09:37:16.071Z,15.10
2019-05-29T09:39:44.605Z,15.20
2019-05-29T09:42:15.059Z,15.40
2019-05-29T09:45:00.917Z,15.50
2019-05-29T09:47:32.095Z,15.60
2019-05-29T09:50:12.428Z,15.70
2019-05-29T09:52:49.433Z,15.80
2019-05-29T09:55:18.526Z,15.90
2019-05-29T09:57:49.853Z,16.10
2019-05-29T10:00:22.163Z,16.30
2019-05-29T10:03:06.593Z,16.40
2019-05-29T10:08:25.979Z,16.30
2019-05-29T10:11:10.661Z,16.50
2019-05-29T10:17:17.718Z,16.70
2019-05-29T10:22:44.190Z,16.70
2019-05-29T10:25:11.719Z,16.70
2019-05-29T10:27:49.579Z,16.70
2019-05-29T10:30:26.306Z,16.70
2019-05-29T10:32:58.879Z,16.80
2019-05-29T10:35:37.020Z,16.80
2019-05-29T10:38:16.252Z,16.90
2019-05-29T10:41:06.272Z,17.10
2019-05-29T10:43:34.198Z,17.20
2019-05-29T10:45:58.931Z,17.20
2019-05-29T10:48:30.769Z,17.20
2019-05-29T10:51:02.029Z,17.30
2019-05-29T10:53:36.029Z,17.50
2019-05-29T10:56:04.569Z,17.50
2019-05-29T10:58:47.649Z,17.60
2019-05-29T11:01:04.842Z,17.70
2019-05-29T11:03:45.545Z,17.80
2019-05-29T11:06:21.192Z,17.80
2019-05-29T11:08:56.412Z,17.90
2019-05-29T11:14:18.145Z,18.00
2019-05-29T11:17:01.521Z,18.20
2019-05-29T11:19:45.661Z,18.30
2019-05-29T11:22:26.112Z,18.30
2019-05-29T11:25:22.129Z,18.40
2019-05-29T11:27:38.421Z,18.50
2019-05-29T11:30:23.060Z,18.60
2019-05-29T11:33:00.470Z,18.50
2019-05-29T11:35:27.539Z,18.50
2019-05-29T11:37:56.484Z,18.60
2019-05-29T11:40:33.513Z,18.80
2019-05-29T11:43:07.777Z,19.00
2019-05-29T11:45:47.562Z,19.10
2019-05-29T11:48:33.446Z,19.30
2019-05-29T11:51:05.868Z,19.50
2019-05-29T11:53:43.277Z,19.80
2019-05-29T11:56:13.571Z,19.90
2019-05-29T11:58:47.734Z,20.00
2019-05-29T12:01:25.046Z,20.10
2019-05-29T12:04:18.671Z,20.00
2019-05-29T12:06:29.036Z,20.00
2019-05-29T12:26:21.491Z,20.20
2019-05-29T12:28:39.304Z,20.30
2019-05-29T12:29:18.760Z,20.00
2019-05-29T12:32:17.782Z,20.40
2019-05-29T12:35:42.767Z,20.50
2019-05-29T12:38:12.011Z,20.60
2019-05-29T12:40:40.614Z,20.70
2019-05-29T12:43:26.550Z,20.70
2019-05-29T12:45:46.565Z,20.90
2019-05-29T12:52:49.127Z,21.30
2019-05-29T12:55:17.543Z,21.10
2019-05-29T12:58:00.067Z,20.90
2019-05-29T13:00:26.450Z,20.60
2019-05-29T13:03:02.933Z,20.50
2019-05-29T13:08:21.450Z,20.70
2019-05-29T13:10:56.226Z,20.90
2019-05-29T13:14:00.580Z,21.10
2019-05-29T13:16:31.944Z,21.10
2019-05-29T13:19:24.736Z,21.50
2019-05-29T13:21:57.276Z,21.50
2019-05-29T13:24:31.881Z,21.30
2019-05-29T13:27:23.095Z,21.00
2019-05-29T13:30:00.606Z,20.90
2019-05-29T13:32:30.974Z,21.00
2019-05-29T13:35:00.429Z,21.00
2019-05-29T13:37:37.214Z,21.20
2019-05-29T13:40:13.543Z,21.60
2019-05-29T13:42:39.890Z,21.80
2019-05-29T13:45:34.755Z,21.80
2019-05-29T13:48:05.239Z,21.90
2019-05-29T13:50:42.691Z,22.10
2019-05-29T13:56:11.389Z,22.10
2019-05-29T13:58:46.520Z,22.20
2019-05-29T14:01:14.924Z,21.90
2019-05-29T14:03:45.095Z,21.80
2019-05-29T14:09:16.323Z,21.40
2019-05-29T14:11:43.992Z,21.00
2019-05-29T14:15:08.244Z,21.00
2019-05-29T14:18:54.480Z,21.00
2019-05-29T14:21:27.663Z,20.80
2019-05-29T14:24:02.769Z,21.00
2019-05-29T14:26:49.300Z,21.50
2019-05-29T14:29:26.914Z,22.00
2019-05-29T14:31:59.245Z,22.30
2019-05-29T14:34:34.889Z,22.50
2019-05-29T14:37:21.967Z,22.70
2019-05-29T14:40:12.071Z,22.40
2019-05-29T14:42:46.190Z,22.10
2019-05-29T14:45:15.412Z,21.80
2019-05-29T14:47:46.161Z,21.80
2019-05-29T14:50:17.370Z,22.10
2019-05-29T14:56:58.316Z,22.70
2019-05-29T15:01:50.991Z,22.00
2019-05-29T15:04:16.698Z,22.10
2019-05-29T15:07:05.774Z,22.50
2019-05-29T15:09:43.653Z,22.60
2019-05-29T15:12:14.254Z,22.60
2019-05-29T15:15:43.635Z,22.60
2019-05-29T15:18:18.668Z,22.40
2019-05-29T15:24:09.560Z,22.50
2019-05-29T15:26:52.165Z,22.80
2019-05-29T15:32:12.655Z,22.90
2019-05-29T15:34:48.303Z,22.90
2019-05-29T15:37:18.547Z,22.80
2019-05-29T15:39:49.787Z,22.80
2019-05-29T15:42:33.937Z,22.80
2019-05-29T15:44:53.310Z,22.80
2019-05-29T15:47:25.320Z,22.90
2019-05-29T15:49:59.474Z,22.70
2019-05-29T15:52:29.054Z,22.40
2019-05-29T15:54:55.483Z,22.20
2019-05-29T15:57:54.710Z,22.10
2019-05-29T16:00:50.733Z,22.20
2019-05-29T16:03:19.641Z,22.10
2019-05-29T16:05:50.865Z,22.20
2019-05-29T16:08:20.081Z,22.20
2019-05-29T16:10:49.867Z,22.00
2019-05-29T16:13:24.621Z,21.70
2019-05-29T16:15:55.774Z,21.60
2019-05-29T16:18:28.079Z,21.60
2019-05-29T16:20:57.380Z,21.50
2019-05-29T16:23:35.617Z,21.40
2019-05-29T16:26:02.223Z,21.60
2019-05-29T16:28:50.473Z,21.90
2019-05-29T16:31:21.117Z,21.80
2019-05-29T16:34:06.400Z,21.80
2019-05-29T16:36:39.195Z,21.80
2019-05-29T16:39:19.181Z,21.80
2019-05-29T16:41:47.540Z,21.90
2019-05-29T16:44:38.138Z,21.80
2019-05-29T16:47:20.525Z,21.60
2019-05-29T16:49:46.826Z,21.50
2019-05-29T16:52:15.011Z,21.40
2019-05-29T16:54:54.334Z,21.30
2019-05-29T16:57:28.176Z,21.20
2019-05-29T17:00:00.275Z,21.10
2019-05-29T17:02:37.744Z,20.90
2019-05-29T17:05:17.748Z,20.80
2019-05-29T17:07:56.978Z,20.70
2019-05-29T17:10:33.681Z,20.70
2019-05-29T17:20:40.308Z,20.10
2019-05-29T17:26:52.387Z,20.10
2019-05-29T17:29:54.451Z,20.30
2019-05-29T17:32:51.405Z,20.30
2019-05-29T17:35:50.301Z,20.30
2019-05-29T17:38:50.900Z,20.20
2019-05-29T17:41:23.199Z,20.20
2019-05-29T17:43:53.052Z,20.20
2019-05-29T17:46:29.315Z,20.10
2019-05-29T17:49:06.581Z,20.00
2019-05-29T17:54:43.490Z,19.80
2019-05-29T17:57:08.909Z,19.60
2019-05-29T18:06:44.251Z,19.30
2019-05-29T18:32:26.874Z,19.00
2019-05-29T18:35:44.584Z,18.90
2019-05-29T18:38:28.750Z,18.90
2019-05-29T18:41:02.110Z,18.80
2019-05-29T18:43:32.845Z,18.80
2019-05-29T18:48:53.437Z,18.70
2019-05-29T19:01:10.994Z,18.50
2019-05-29T19:04:34.344Z,18.60
2019-05-29T19:06:39.943Z,18.40
2019-05-29T19:09:21.783Z,18.40
2019-05-29T19:11:51.190Z,18.30
2019-05-29T19:15:12.646Z,18.20
2019-05-29T19:17:10.958Z,18.10
2019-05-29T19:19:44.406Z,17.80
2019-05-29T19:22:26.721Z,17.60
2019-05-29T19:27:52.458Z,17.40
2019-05-29T19:30:24.730Z,17.30
2019-05-29T19:33:14.998Z,17.20
2019-05-29T19:35:54.026Z,17.20
2019-05-29T19:39:01.462Z,17.10
2019-05-29T19:41:21.298Z,17.10
2019-05-29T19:46:52.544Z,17.00
2019-05-29T19:52:14.300Z,17.00
2019-05-29T19:54:46.968Z,16.90
2019-05-29T19:57:50.523Z,16.80
2019-05-29T20:00:19.158Z,16.80
2019-05-29T20:05:41.840Z,16.70
2019-05-29T20:08:16.783Z,16.70
2019-05-29T20:10:51.023Z,16.70
2019-05-29T20:13:21.939Z,16.60
2019-05-29T20:15:58.714Z,16.60
2019-05-29T20:18:32.074Z,16.60
2019-05-29T20:21:28.555Z,16.50
2019-05-29T20:23:55.521Z,16.50
2019-05-29T20:26:35.374Z,16.40
2019-05-29T20:29:26.046Z,16.40
2019-05-29T20:32:05.178Z,16.40
2019-05-29T20:34:47.531Z,16.40
2019-05-29T20:37:26.155Z,16.40
2019-05-29T20:40:01.521Z,16.40
2019-05-29T20:42:32.140Z,16.40
2019-05-29T20:45:17.498Z,16.40
2019-05-29T20:47:42.324Z,16.40
2019-05-29T20:50:12.470Z,16.40
2019-05-29T20:52:55.571Z,16.30
2019-05-29T20:55:25.921Z,16.30
2019-05-29T20:58:00.959Z,16.30
2019-05-29T21:00:27.521Z,16.30
2019-05-29T21:03:15.021Z,16.30
2019-05-29T21:05:42.922Z,16.30
2019-05-29T21:08:18.952Z,16.20
2019-05-29T21:10:53.302Z,16.20
2019-05-29T21:13:43.687Z,16.10
2019-05-29T21:16:16.863Z,16.10
2019-05-29T21:18:55.897Z,16.10
2019-05-29T21:21:44.620Z,16.00
2019-05-29T21:24:34.451Z,16.00
2019-05-29T21:27:03.151Z,15.90
2019-05-29T21:29:39.147Z,15.90
2019-05-29T21:35:17.605Z,16.00
2019-05-29T21:40:54.244Z,16.00
2019-05-29T21:43:27.839Z,16.00
2019-05-29T21:52:09.472Z,16.00
2019-05-29T21:54:41.375Z,15.90
2019-05-29T21:57:21.557Z,15.90
2019-05-29T21:59:48.081Z,15.90
2019-05-29T22:03:19.821Z,15.90
2019-05-29T22:09:04.885Z,15.80
2019-05-29T22:22:37.644Z,15.70
2019-05-29T22:25:34.348Z,15.80
2019-05-29T22:28:40.248Z,15.80
2019-05-29T22:31:10.433Z,15.70
2019-05-29T22:33:36.773Z,15.70
2019-05-29T22:36:15.320Z,15.70
2019-05-29T22:38:45.203Z,15.70
2019-05-29T22:41:24.293Z,15.80
2019-05-29T22:43:57.573Z,15.70
2019-05-29T22:46:25.743Z,15.70
2019-05-29T22:49:02.124Z,15.70
2019-05-29T22:54:21.277Z,15.70
2019-05-29T22:57:05.130Z,15.70
2019-05-29T22:59:37.324Z,15.70
2019-05-29T23:02:09.340Z,15.70
2019-05-29T23:05:00.335Z,15.70
2019-05-29T23:07:31.522Z,15.70
2019-05-29T23:10:13.681Z,15.70
2019-05-29T23:12:56.421Z,15.70
2019-05-29T23:18:42.830Z,15.70
2019-05-29T23:21:27.699Z,15.70
2019-05-29T23:23:53.384Z,15.70
2019-05-29T23:26:28.715Z,15.70
2019-05-29T23:28:57.380Z,15.70
2019-05-29T23:31:26.095Z,15.70
2019-05-29T23:36:52.965Z,15.70
2019-05-29T23:39:38.670Z,15.70
2019-05-29T23:42:15.392Z,15.60
2019-05-29T23:44:51.744Z,15.60
2019-05-29T23:47:53.409Z,15.60
2019-05-29T23:50:18.037Z,15.60
2019-05-29T23:52:49.037Z,15.50
2019-05-29T23:58:20.067Z,15.50
